Timeline UpdatesTrip UpdatesNews PostsPvt PostsTravel TipsAdmin PostsConv PostsFollowed PostsChat RequestsBlog PostsPNR Posts

Disclaimer
Search
 
 
Sat Apr 19, 2014 15:52:34 ISTHomeTrainsΣChainsAtlasPNRForumGalleryNewsFAQTripsMembersLoginFeedback
No Recent News for this Train
Other Trains in the News **new
Latest...
⇐ Return Journey: Train# 54824

54823/Jodhpur Hisar passenger (UnReserved)

Oct 10 2013 (4:47PM)
Change Departure Station:
Change Arrival Station:
Post a Train Travel TipPost a Train Travel Tip **new
Post a Comment/Question/Picture/VideoPost a Comment/Question/Picture/Video
Pantry/Catering
✕ NO Pantry Car
✕ NO Catering
RSA - Rake Sharing
Rake/Coach Composition
7 general , 2 slr , total 9 coach.
Loco
ABR WDM - 3A.
News    PNR    Forum    Time-Table    Availability    Fare Chart    Map    Arr/Dep History    Trips    Gallery    ΣChains    X/O    Timeline    
Travel Time: 2h 32m    11 halts    Distance: 103 km    Avg Speed: 40 km/hr
Type: Passenger
Zone: NWR/North Western
Departs @ 11:10 (Avg on time)
Platform# ???
SMTWTFS
Jodhpur Junction/JU 
Arrives @ 13:42 (Avg 31m late)
Platform# ???
SMTWTFS
Merta Road Junction/MTD 

11 halts. 12 intermediate Stations between Jodhpur Junction and Merta Road Junction

Show ALL intermediate Stations  Show Old Time-Table

#CodeStation NameX/OArrivesAvgDepartsAvgHaltPFDay#KmSpeedElevZoneAddress
1JU»Jodhpur Junction (5)»  -11:10+0--10.028241mNWRJodhpur, Rajasthan
2RKBRaikabagh Palace Junction (2)  11:15+1111:17+222m--12.338237mNWRJodhpur, Rajasthan
3BNOBanarX  11:36+1911:38+222m--114.262213mNWRBanar, Rajasthan
4JWLJajiwal  11:46+2211:48+252m--122.567228mNWRJodhpur, Rajasthan
5AASAsranadaX  11:56+2611:58+292m--131.342251mNWRState Highway 58, Rajasthan
6KSWKheri Salwa  12:11+2512:13+262m--140.464269mNWRJajiwal, Rajasthan
7PPRPipar Road Junction  12:19+2812:21+292m--146.957272mNWRState Highway 58, Rajasthan
8SWFSathin Road  12:30+3012:32+312m--155.569284mNWRUMED, Rajasthan
9UMEDUmed  12:41+3212:43+332m--165.861308mNWRJodhpur, Rajasthan
10KXGKharia KhangarhX  12:53+3312:55+362m--176.033310mNWRKharia Khangar, Rajasthan
11GOTNGotan  13:08+3013:10+342m--183.159323mNWRGotan, Rajasthan
12JOMJogi Magra (1)X  13:20+3613:22+412m1192.931335mNWRNagaur, Rajasthan
13MTD•Merta Road Junction (4)•  13:42+3113:47+355m--1103.3116322mNWRPhalodi, Rajasthan
14KQWKheduliX  13:55+3813:57+372m--1118.717307mNWRRen, Rajasthan
15RENRen  14:04+3814:06+392m--1120.763307mNWRNagaur, Rajasthan
16JACJalsu  14:19+3814:21+392m--1134.448321mNWRNagaur, Rajasthan
17JACNJalsu NanakX  14:28+2114:30+212m--1140.017331mNWRREN, Rajasthan
18DNADegana Junction (4)  14:56+1814:59+283m--1147.375339mNWRDegana, Rajasthan
19KRCKiroda  15:09+3315:11+332m--1159.929351mNWRDegana, Rajasthan
20KHTUKhatu  15:37+1915:39+202m--1172.353359mNWRKhatu Khurd, Rajasthan
21CTKTChoti Khatu  15:45+2015:47+202m--1177.662338mNWRDegana, Rajasthan
22PWPirwa  16:00+1616:02+162m--1191.046337mNWRDegana, Rajasthan
23KKNAKhunkhuna  16:10+1616:12+162m--1197.263350mNWRState Highway 60, Rajasthan
24MBSKMarwar Balia  16:22+1616:24+162m--1207.656335mNWRMarwar, Rajasthan
25DIADidwana  16:30+1616:32+182m--1213.261342mNWRDidwana, Rajasthan
26SVOSanvrad  16:45+1816:47+182m--1226.463338mNWRDidwana, Rajasthan
27BLSDBalsamand  16:55+1416:57+142m--1234.864323mNWRDidwana, Rajasthan
28LAULadnun (1)  17:06+1517:08+152m--1244.335330mNWRNagaur District. 341306, Rajasthan
29JSHJaswantgarh  17:16+1317:18+132m--1249.050312mNWRSujangarh, Rajasthan
30SUJHSujangarh  17:24+1317:26+152m--1254.161318mNWRSujangarh, Rajasthan
31TLCTalchhapar  17:39+1417:41+162m--1267.470305mNWRSujangarh, Rajasthan
32PIHParhihara  17:52+1817:54+342m--1280.246312mNWRSujangarh, Rajasthan
33LOHALohaX  18:09+818:11+82m--1291.713318mNWRRatangarh, Rajasthan
34RTGHRatangarh JunctionX  18:50+719:00+510m--1300.072309mNWRRatangarh, Rajasthan
35MIOMolisar  19:14+719:15+71m--1316.960310mNWRChuru, Rajasthan
36SMNNShri Makri Nath Nagar  19:21+719:22+71m--1323.039307mNWRChuru, Rajasthan
37JOHJuharpura  19:27+719:28+71m--1326.268302mNWRState Highway 69, Rajasthan
38DEPDepalsar  19:36+919:38+82m--1335.238292mNWRChuru, Rajasthan
39CURChuru Junction (3)  19:50+720:00+610m--1342.880288mNWRChuru Junction, Rajasthan
40ASLUAslu  20:11+1120:13+102m--1357.453284mNWRNational Highway 65, Rajasthan
41SRSLSirsala20:23+820:24+81m--1366.353275mNWRNational Highway 65, Rajasthan
42DKXDudhwakharaX  20:30+820:31+91m--1371.656262mNWRNational Highway 65, Rajasthan
43HYLHadyal  20:45+720:46+71m--1384.756255mNWRMDR 97, Rajasthan
44DKWADokwa  20:54+720:55+71m--1392.251251mNWRNational Highway 65, Rajasthan
45SDLPSadulpur Junction  21:05+721:10+75m--1400.640239mNWRRajgarh, Rajasthan
46SURPSuratpura  21:16+821:17+81m--1404.670239mNWRNational Highway 65, Rajasthan
47JUPJhunpa  21:31+821:32+81m--1421.078225mNWRDist. Bhiwani 127046, Haryana
48SWNISiwani  21:47+921:49+82m--1440.556210mNWRNational Highway 65, Haryana
49CRWCharaud  22:01+822:02+81m--1451.634212mNWRNational Highway 65, Haryana
50HSRHisar Junction (6)  22:35+0---1470.5-215mNWRHisar, Haryana
Scroll to Top
Scroll to Bottom